sensor_id;sensor_type;location;lat;lon;timestamp;P1;durP1;ratioP1;P2;durP2;ratioP2
4517;SDS011;2271;49.464;11.070;2023-04-02T00:00:30;0.70;;;0.70;;
4517;SDS011;2271;49.464;11.070;2023-04-02T00:03:00;1.90;;;1.10;;
4517;SDS011;2271;49.464;11.070;2023-04-02T00:05:37;0.60;;;0.60;;
4517;SDS011;2271;49.464;11.070;2023-04-02T00:10:52;3.83;;;1.03;;
4517;SDS011;2271;49.464;11.070;2023-04-02T00:13:25;0.70;;;0.70;;
4517;SDS011;2271;49.464;11.070;2023-04-02T00:15:58;1.73;;;0.80;;
4517;SDS011;2271;49.464;11.070;2023-04-02T00:18:27;1.17;;;0.90;;
4517;SDS011;2271;49.464;11.070;2023-04-02T00:21:02;8.67;;;1.17;;
4517;SDS011;2271;49.464;11.070;2023-04-02T00:23:37;4.10;;;0.97;;
4517;SDS011;2271;49.464;11.070;2023-04-02T00:26:05;0.87;;;0.60;;
4517;SDS011;2271;49.464;11.070;2023-04-02T00:28:50;3.20;;;1.00;;
4517;SDS011;2271;49.464;11.070;2023-04-02T00:31:17;1.23;;;1.00;;
4517;SDS011;2271;49.464;11.070;2023-04-02T00:33:44;0.80;;;0.80;;
4517;SDS011;2271;49.464;11.070;2023-04-02T00:36:10;1.50;;;0.73;;
4517;SDS011;2271;49.464;11.070;2023-04-02T00:38:36;0.87;;;0.70;;
4517;SDS011;2271;49.464;11.070;2023-04-02T00:41:03;0.67;;;0.67;;
4517;SDS011;2271;49.464;11.070;2023-04-02T00:43:31;1.10;;;0.90;;
4517;SDS011;2271;49.464;11.070;2023-04-02T00:46:07;1.73;;;0.87;;
4517;SDS011;2271;49.464;11.070;2023-04-02T00:48:47;0.80;;;0.80;;
4517;SDS011;2271;49.464;11.070;2023-04-02T00:54:19;3.00;;;0.90;;
4517;SDS011;2271;49.464;11.070;2023-04-02T00:56:51;3.73;;;1.60;;
4517;SDS011;2271;49.464;11.070;2023-04-02T01:19:48;2.27;;;0.90;;
4517;SDS011;2271;49.464;11.070;2023-04-02T01:22:27;1.23;;;1.13;;
4517;SDS011;2271;49.464;11.070;2023-04-02T01:24:59;2.00;;;1.23;;
4517;SDS011;2271;49.464;11.070;2023-04-02T01:27:38;1.40;;;1.30;;
4517;SDS011;2271;49.464;11.070;2023-04-02T01:30:09;2.63;;;0.93;;
4517;SDS011;2271;49.464;11.070;2023-04-02T01:32:36;2.30;;;1.00;;
4517;SDS011;2271;49.464;11.070;2023-04-02T01:35:03;0.70;;;0.70;;
4517;SDS011;2271;49.464;11.070;2023-04-02T01:45:14;1.30;;;1.20;;
4517;SDS011;2271;49.464;11.070;2023-04-02T01:47:43;1.20;;;1.10;;
4517;SDS011;2271;49.464;11.070;2023-04-02T01:52:44;2.73;;;0.87;;
4517;SDS011;2271;49.464;11.070;2023-04-02T01:55:12;2.10;;;2.00;;
4517;SDS011;2271;49.464;11.070;2023-04-02T01:57:41;1.33;;;1.10;;
4517;SDS011;2271;49.464;11.070;2023-04-02T02:00:14;2.70;;;1.30;;
4517;SDS011;2271;49.464;11.070;2023-04-02T02:02:41;2.20;;;1.40;;
4517;SDS011;2271;49.464;11.070;2023-04-02T02:05:20;1.53;;;1.20;;
4517;SDS011;2271;49.464;11.070;2023-04-02T02:07:47;3.23;;;1.30;;
4517;SDS011;2271;49.464;11.070;2023-04-02T02:10:16;1.97;;;1.57;;
4517;SDS011;2271;49.464;11.070;2023-04-02T02:12:47;1.37;;;1.27;;
4517;SDS011;2271;49.464;11.070;2023-04-02T02:15:13;2.50;;;1.43;;
4517;SDS011;2271;49.464;11.070;2023-04-02T02:17:41;1.80;;;1.40;;
4517;SDS011;2271;49.464;11.070;2023-04-02T02:20:08;8.13;;;1.90;;
4517;SDS011;2271;49.464;11.070;2023-04-02T02:22:36;2.43;;;1.30;;
4517;SDS011;2271;49.464;11.070;2023-04-02T02:25:14;2.90;;;1.40;;
4517;SDS011;2271;49.464;11.070;2023-04-02T02:33:30;2.07;;;1.60;;
4517;SDS011;2271;49.464;11.070;2023-04-02T02:39:02;1.87;;;1.67;;
4517;SDS011;2271;49.464;11.070;2023-04-02T02:42:03;3.60;;;1.40;;
4517;SDS011;2271;49.464;11.070;2023-04-02T02:44:38;1.83;;;1.10;;
4517;SDS011;2271;49.464;11.070;2023-04-02T02:47:27;2.27;;;1.23;;
4517;SDS011;2271;49.464;11.070;2023-04-02T02:49:56;1.57;;;1.40;;
4517;SDS011;2271;49.464;11.070;2023-04-02T02:52:31;1.30;;;1.20;;
4517;SDS011;2271;49.464;11.070;2023-04-02T02:55:02;1.23;;;1.13;;
4517;SDS011;2271;49.464;11.070;2023-04-02T02:57:52;3.30;;;1.50;;
4517;SDS011;2271;49.464;11.070;2023-04-02T03:00:42;1.40;;;1.30;;
4517;SDS011;2271;49.464;11.070;2023-04-02T03:03:10;3.23;;;1.40;;
4517;SDS011;2271;49.464;11.070;2023-04-02T03:05:41;5.13;;;1.30;;
4517;SDS011;2271;49.464;11.070;2023-04-02T03:08:09;1.43;;;1.30;;
4517;SDS011;2271;49.464;11.070;2023-04-02T03:13:42;2.00;;;1.27;;
4517;SDS011;2271;49.464;11.070;2023-04-02T03:16:27;1.60;;;1.13;;
4517;SDS011;2271;49.464;11.070;2023-04-02T03:18:57;2.83;;;1.53;;
4517;SDS011;2271;49.464;11.070;2023-04-02T03:21:56;2.60;;;1.47;;
4517;SDS011;2271;49.464;11.070;2023-04-02T03:27:03;2.87;;;1.60;;
4517;SDS011;2271;49.464;11.070;2023-04-02T03:29:38;3.20;;;1.93;;
4517;SDS011;2271;49.464;11.070;2023-04-02T03:32:16;1.53;;;1.43;;
4517;SDS011;2271;49.464;11.070;2023-04-02T03:34:59;1.63;;;1.40;;
4517;SDS011;2271;49.464;11.070;2023-04-02T03:37:32;2.40;;;1.70;;
4517;SDS011;2271;49.464;11.070;2023-04-02T03:40:27;1.40;;;1.30;;
4517;SDS011;2271;49.464;11.070;2023-04-02T03:43:00;1.20;;;1.20;;
4517;SDS011;2271;49.464;11.070;2023-04-02T03:45:35;1.90;;;1.50;;
4517;SDS011;2271;49.464;11.070;2023-04-02T03:50:57;1.80;;;1.50;;
4517;SDS011;2271;49.464;11.070;2023-04-02T03:53:29;1.13;;;1.13;;
4517;SDS011;2271;49.464;11.070;2023-04-02T03:55:56;1.60;;;1.50;;
4517;SDS011;2271;49.464;11.070;2023-04-02T04:00:59;2.03;;;1.93;;
4517;SDS011;2271;49.464;11.070;2023-04-02T04:03:56;1.80;;;1.70;;
4517;SDS011;2271;49.464;11.070;2023-04-02T04:06:30;2.23;;;1.60;;
4517;SDS011;2271;49.464;11.070;2023-04-02T04:09:39;3.33;;;1.47;;
4517;SDS011;2271;49.464;11.070;2023-04-02T04:11:54;2.30;;;1.43;;
4517;SDS011;2271;49.464;11.070;2023-04-02T04:14:36;2.30;;;2.10;;
4517;SDS011;2271;49.464;11.070;2023-04-02T04:19:43;4.03;;;1.93;;
4517;SDS011;2271;49.464;11.070;2023-04-02T04:22:19;2.80;;;2.00;;
4517;SDS011;2271;49.464;11.070;2023-04-02T04:25:04;1.73;;;1.63;;
4517;SDS011;2271;49.464;11.070;2023-04-02T04:30:27;3.60;;;1.90;;
4517;SDS011;2271;49.464;11.070;2023-04-02T04:33:02;2.80;;;1.67;;
4517;SDS011;2271;49.464;11.070;2023-04-02T04:35:38;2.23;;;1.83;;
4517;SDS011;2271;49.464;11.070;2023-04-02T04:38:13;3.57;;;2.00;;
4517;SDS011;2271;49.464;11.070;2023-04-02T04:40:53;2.60;;;1.90;;
4517;SDS011;2271;49.464;11.070;2023-04-02T04:43:41;2.67;;;1.80;;
4517;SDS011;2271;49.464;11.070;2023-04-02T04:46:40;2.00;;;1.80;;
4517;SDS011;2271;49.464;11.070;2023-04-02T04:49:11;1.80;;;1.70;;
4517;SDS011;2271;49.464;11.070;2023-04-02T04:51:55;3.43;;;2.43;;
4517;SDS011;2271;49.464;11.070;2023-04-02T04:54:25;2.90;;;1.90;;
4517;SDS011;2271;49.464;11.070;2023-04-02T04:56:56;2.60;;;1.83;;
4517;SDS011;2271;49.464;11.070;2023-04-02T04:59:34;3.50;;;2.20;;
4517;SDS011;2271;49.464;11.070;2023-04-02T05:02:21;2.30;;;1.90;;
4517;SDS011;2271;49.464;11.070;2023-04-02T05:04:51;2.23;;;1.73;;
4517;SDS011;2271;49.464;11.070;2023-04-02T05:07:30;2.20;;;1.87;;
4517;SDS011;2271;49.464;11.070;2023-04-02T05:10:07;3.93;;;1.77;;
4517;SDS011;2271;49.464;11.070;2023-04-02T05:20:49;3.53;;;1.90;;
4517;SDS011;2271;49.464;11.070;2023-04-02T05:23:36;1.70;;;1.60;;
4517;SDS011;2271;49.464;11.070;2023-04-02T05:27:01;1.57;;;1.47;;
4517;SDS011;2271;49.464;11.070;2023-04-02T05:29:14;1.63;;;1.53;;
4517;SDS011;2271;49.464;11.070;2023-04-02T05:34:51;2.57;;;1.27;;
4517;SDS011;2271;49.464;11.070;2023-04-02T05:37:20;3.67;;;1.90;;
4517;SDS011;2271;49.464;11.070;2023-04-02T05:39:53;2.20;;;1.87;;
4517;SDS011;2271;49.464;11.070;2023-04-02T05:42:21;1.90;;;1.70;;
4517;SDS011;2271;49.464;11.070;2023-04-02T05:44:58;1.90;;;1.80;;
4517;SDS011;2271;49.464;11.070;2023-04-02T05:47:28;2.23;;;1.90;;
4517;SDS011;2271;49.464;11.070;2023-04-02T05:52:33;2.30;;;1.60;;
4517;SDS011;2271;49.464;11.070;2023-04-02T05:55:18;1.87;;;1.47;;
4517;SDS011;2271;49.464;11.070;2023-04-02T05:57:53;3.03;;;1.38;;
4517;SDS011;2271;49.464;11.070;2023-04-02T06:00:39;1.88;;;1.60;;
4517;SDS011;2271;49.464;11.070;2023-04-02T06:05:48;2.55;;;2.28;;
4517;SDS011;2271;49.464;11.070;2023-04-02T06:08:49;3.22;;;2.78;;
4517;SDS011;2271;49.464;11.070;2023-04-02T06:11:12;2.92;;;1.90;;
4517;SDS011;2271;49.464;11.070;2023-04-02T06:13:44;2.10;;;1.90;;
4517;SDS011;2271;49.464;11.070;2023-04-02T06:16:13;3.07;;;2.17;;
4517;SDS011;2271;49.464;11.070;2023-04-02T06:18:41;2.37;;;2.17;;
4517;SDS011;2271;49.464;11.070;2023-04-02T06:21:08;2.10;;;1.97;;
4517;SDS011;2271;49.464;11.070;2023-04-02T06:28:53;2.83;;;2.20;;
4517;SDS011;2271;49.464;11.070;2023-04-02T06:31:27;2.70;;;2.50;;
4517;SDS011;2271;49.464;11.070;2023-04-02T06:33:54;2.43;;;2.10;;
4517;SDS011;2271;49.464;11.070;2023-04-02T06:36:21;2.97;;;2.13;;
4517;SDS011;2271;49.464;11.070;2023-04-02T06:38:49;2.20;;;2.10;;
4517;SDS011;2271;49.464;11.070;2023-04-02T06:41:20;3.93;;;2.30;;
4517;SDS011;2271;49.464;11.070;2023-04-02T06:43:58;2.70;;;2.10;;
4517;SDS011;2271;49.464;11.070;2023-04-02T06:46:33;2.50;;;2.30;;
4517;SDS011;2271;49.464;11.070;2023-04-02T06:49:14;2.80;;;2.47;;
4517;SDS011;2271;49.464;11.070;2023-04-02T06:51:45;3.13;;;2.40;;
4517;SDS011;2271;49.464;11.070;2023-04-02T06:54:15;2.63;;;2.43;;
4517;SDS011;2271;49.464;11.070;2023-04-02T06:56:44;2.60;;;2.40;;
4517;SDS011;2271;49.464;11.070;2023-04-02T06:59:13;2.73;;;2.30;;
4517;SDS011;2271;49.464;11.070;2023-04-02T07:01:50;4.13;;;2.47;;
4517;SDS011;2271;49.464;11.070;2023-04-02T07:04:17;4.30;;;2.63;;
4517;SDS011;2271;49.464;11.070;2023-04-02T07:06:44;4.37;;;3.00;;
4517;SDS011;2271;49.464;11.070;2023-04-02T07:09:09;3.13;;;2.53;;
4517;SDS011;2271;49.464;11.070;2023-04-02T07:11:35;3.00;;;2.60;;
4517;SDS011;2271;49.464;11.070;2023-04-02T07:14:01;4.17;;;2.97;;
4517;SDS011;2271;49.464;11.070;2023-04-02T07:16:28;2.57;;;2.37;;
4517;SDS011;2271;49.464;11.070;2023-04-02T07:18:56;2.63;;;2.43;;
4517;SDS011;2271;49.464;11.070;2023-04-02T07:21:27;3.10;;;2.80;;
4517;SDS011;2271;49.464;11.070;2023-04-02T07:23:53;2.60;;;2.40;;
4517;SDS011;2271;49.464;11.070;2023-04-02T07:26:20;3.80;;;3.40;;
4517;SDS011;2271;49.464;11.070;2023-04-02T07:28:49;3.37;;;3.07;;
4517;SDS011;2271;49.464;11.070;2023-04-02T07:31:16;3.17;;;2.53;;
4517;SDS011;2271;49.464;11.070;2023-04-02T07:33:46;3.63;;;2.90;;
4517;SDS011;2271;49.464;11.070;2023-04-02T07:36:13;3.07;;;2.77;;
4517;SDS011;2271;49.464;11.070;2023-04-02T07:38:40;2.80;;;2.60;;
4517;SDS011;2271;49.464;11.070;2023-04-02T07:41:06;3.30;;;3.03;;
4517;SDS011;2271;49.464;11.070;2023-04-02T07:43:32;4.73;;;2.93;;
4517;SDS011;2271;49.464;11.070;2023-04-02T07:45:57;4.40;;;3.07;;
4517;SDS011;2271;49.464;11.070;2023-04-02T07:48:26;3.20;;;2.90;;
4517;SDS011;2271;49.464;11.070;2023-04-02T07:50:52;3.10;;;2.80;;
4517;SDS011;2271;49.464;11.070;2023-04-02T07:53:25;3.50;;;3.20;;
4517;SDS011;2271;49.464;11.070;2023-04-02T07:56:02;3.40;;;3.10;;
4517;SDS011;2271;49.464;11.070;2023-04-02T07:58:29;4.67;;;3.37;;
4517;SDS011;2271;49.464;11.070;2023-04-02T08:00:56;3.60;;;3.30;;
4517;SDS011;2271;49.464;11.070;2023-04-02T08:03:22;5.83;;;3.63;;
4517;SDS011;2271;49.464;11.070;2023-04-02T08:05:49;3.80;;;3.30;;
4517;SDS011;2271;49.464;11.070;2023-04-02T08:08:15;3.43;;;3.13;;
4517;SDS011;2271;49.464;11.070;2023-04-02T08:10:41;3.77;;;3.30;;
4517;SDS011;2271;49.464;11.070;2023-04-02T08:13:06;3.70;;;2.30;;
4517;SDS011;2271;49.464;11.070;2023-04-02T08:15:32;7.80;;;4.73;;
4517;SDS011;2271;49.464;11.070;2023-04-02T08:17:58;1.03;;;0.70;;
4517;SDS011;2271;49.464;11.070;2023-04-02T08:20:23;0.90;;;0.73;;
4517;SDS011;2271;49.464;11.070;2023-04-02T08:22:49;0.50;;;0.50;;
4517;SDS011;2271;49.464;11.070;2023-04-02T08:25:15;0.67;;;0.60;;
4517;SDS011;2271;49.464;11.070;2023-04-02T08:27:41;0.60;;;0.60;;
4517;SDS011;2271;49.464;11.070;2023-04-02T08:30:08;0.67;;;0.67;;
4517;SDS011;2271;49.464;11.070;2023-04-02T08:32:36;1.17;;;0.60;;
4517;SDS011;2271;49.464;11.070;2023-04-02T08:35:05;0.50;;;0.50;;
4517;SDS011;2271;49.464;11.070;2023-04-02T08:37:31;0.50;;;0.50;;
4517;SDS011;2271;49.464;11.070;2023-04-02T08:39:57;0.57;;;0.53;;
4517;SDS011;2271;49.464;11.070;2023-04-02T08:42:45;0.93;;;0.70;;
4517;SDS011;2271;49.464;11.070;2023-04-02T08:48:06;0.97;;;0.70;;
4517;SDS011;2271;49.464;11.070;2023-04-02T08:50:37;1.00;;;0.63;;
4517;SDS011;2271;49.464;11.070;2023-04-02T08:53:15;0.87;;;0.50;;
4517;SDS011;2271;49.464;11.070;2023-04-02T08:55:50;0.50;;;0.50;;
4517;SDS011;2271;49.464;11.070;2023-04-02T09:04:04;0.47;;;0.47;;
4517;SDS011;2271;49.464;11.070;2023-04-02T09:06:36;0.43;;;0.43;;
4517;SDS011;2271;49.464;11.070;2023-04-02T09:09:02;0.80;;;0.80;;
4517;SDS011;2271;49.464;11.070;2023-04-02T09:14:49;0.70;;;0.70;;
4517;SDS011;2271;49.464;11.070;2023-04-02T09:17:29;0.63;;;0.63;;
4517;SDS011;2271;49.464;11.070;2023-04-02T09:19:56;0.67;;;0.60;;
4517;SDS011;2271;49.464;11.070;2023-04-02T09:22:27;0.47;;;0.47;;
4517;SDS011;2271;49.464;11.070;2023-04-02T09:24:56;0.67;;;0.60;;
4517;SDS011;2271;49.464;11.070;2023-04-02T09:27:25;0.60;;;0.53;;
4517;SDS011;2271;49.464;11.070;2023-04-02T09:29:56;0.40;;;0.40;;
4517;SDS011;2271;49.464;11.070;2023-04-02T09:32:48;0.73;;;0.70;;
4517;SDS011;2271;49.464;11.070;2023-04-02T09:37:45;0.47;;;0.47;;
4517;SDS011;2271;49.464;11.070;2023-04-02T09:40:20;0.50;;;0.50;;
4517;SDS011;2271;49.464;11.070;2023-04-02T09:43:11;0.57;;;0.47;;
4517;SDS011;2271;49.464;11.070;2023-04-02T09:45:41;0.60;;;0.60;;
4517;SDS011;2271;49.464;11.070;2023-04-02T09:48:42;1.27;;;0.60;;
4517;SDS011;2271;49.464;11.070;2023-04-02T09:53:45;1.33;;;1.13;;
4517;SDS011;2271;49.464;11.070;2023-04-02T09:56:20;0.90;;;0.90;;
4517;SDS011;2271;49.464;11.070;2023-04-02T10:01:46;0.50;;;0.50;;
4517;SDS011;2271;49.464;11.070;2023-04-02T10:09:59;0.73;;;0.73;;
4517;SDS011;2271;49.464;11.070;2023-04-02T10:12:28;1.47;;;0.70;;
4517;SDS011;2271;49.464;11.070;2023-04-02T10:15:05;0.63;;;0.63;;
4517;SDS011;2271;49.464;11.070;2023-04-02T10:17:39;0.53;;;0.53;;
4517;SDS011;2271;49.464;11.070;2023-04-02T10:20:07;1.40;;;0.50;;
4517;SDS011;2271;49.464;11.070;2023-04-02T10:22:44;0.60;;;0.60;;
4517;SDS011;2271;49.464;11.070;2023-04-02T10:25:15;0.60;;;0.60;;
4517;SDS011;2271;49.464;11.070;2023-04-02T10:27:47;0.53;;;0.53;;
4517;SDS011;2271;49.464;11.070;2023-04-02T10:30:24;0.40;;;0.40;;
4517;SDS011;2271;49.464;11.070;2023-04-02T10:36:07;0.40;;;0.40;;
4517;SDS011;2271;49.464;11.070;2023-04-02T10:38:57;0.60;;;0.60;;
4517;SDS011;2271;49.464;11.070;2023-04-02T10:41:44;0.70;;;0.70;;
4517;SDS011;2271;49.464;11.070;2023-04-02T10:49:38;0.50;;;0.50;;
4517;SDS011;2271;49.464;11.070;2023-04-02T11:00:00;1.70;;;0.83;;
4517;SDS011;2271;49.464;11.070;2023-04-02T11:10:55;2.90;;;0.80;;
4517;SDS011;2271;49.464;11.070;2023-04-02T11:13:29;0.57;;;0.50;;
4517;SDS011;2271;49.464;11.070;2023-04-02T11:15:59;0.47;;;0.40;;
4517;SDS011;2271;49.464;11.070;2023-04-02T11:18:29;0.40;;;0.40;;
4517;SDS011;2271;49.464;11.070;2023-04-02T11:23:53;0.93;;;0.60;;
4517;SDS011;2271;49.464;11.070;2023-04-02T11:26:27;0.50;;;0.50;;
4517;SDS011;2271;49.464;11.070;2023-04-02T11:29:00;0.63;;;0.50;;
4517;SDS011;2271;49.464;11.070;2023-04-02T11:31:38;0.77;;;0.77;;
4517;SDS011;2271;49.464;11.070;2023-04-02T11:34:05;0.70;;;0.70;;
4517;SDS011;2271;49.464;11.070;2023-04-02T11:44:51;0.60;;;0.60;;
4517;SDS011;2271;49.464;11.070;2023-04-02T11:47:24;0.60;;;0.60;;
4517;SDS011;2271;49.464;11.070;2023-04-02T11:52:21;1.00;;;0.80;;
4517;SDS011;2271;49.464;11.070;2023-04-02T11:55:23;0.73;;;0.70;;
4517;SDS011;2271;49.464;11.070;2023-04-02T12:00:29;0.53;;;0.53;;
4517;SDS011;2271;49.464;11.070;2023-04-02T12:03:35;0.90;;;0.90;;
4517;SDS011;2271;49.464;11.070;2023-04-02T12:11:40;0.93;;;0.93;;
4517;SDS011;2271;49.464;11.070;2023-04-02T12:16:54;3.47;;;1.10;;
4517;SDS011;2271;49.464;11.070;2023-04-02T12:19:21;1.30;;;1.20;;
4517;SDS011;2271;49.464;11.070;2023-04-02T12:21:48;1.20;;;1.10;;
4517;SDS011;2271;49.464;11.070;2023-04-02T12:24:18;0.90;;;0.90;;
4517;SDS011;2271;49.464;11.070;2023-04-02T12:26:45;1.93;;;1.00;;
4517;SDS011;2271;49.464;11.070;2023-04-02T12:29:27;1.17;;;1.07;;
4517;SDS011;2271;49.464;11.070;2023-04-02T12:31:57;1.10;;;1.00;;
4517;SDS011;2271;49.464;11.070;2023-04-02T12:34:25;1.30;;;1.20;;
4517;SDS011;2271;49.464;11.070;2023-04-02T12:36:59;1.33;;;1.23;;
4517;SDS011;2271;49.464;11.070;2023-04-02T12:39:27;1.20;;;1.17;;
4517;SDS011;2271;49.464;11.070;2023-04-02T12:41:53;1.20;;;1.10;;
4517;SDS011;2271;49.464;11.070;2023-04-02T12:44:20;1.20;;;1.10;;
4517;SDS011;2271;49.464;11.070;2023-04-02T12:46:49;1.90;;;1.13;;
4517;SDS011;2271;49.464;11.070;2023-04-02T12:52:20;1.10;;;1.00;;
4517;SDS011;2271;49.464;11.070;2023-04-02T12:54:53;1.57;;;1.20;;
4517;SDS011;2271;49.464;11.070;2023-04-02T12:59:53;1.00;;;1.00;;
4517;SDS011;2271;49.464;11.070;2023-04-02T13:02:25;1.33;;;1.23;;
4517;SDS011;2271;49.464;11.070;2023-04-02T13:04:55;1.33;;;1.23;;
4517;SDS011;2271;49.464;11.070;2023-04-02T13:07:25;1.50;;;1.40;;
4517;SDS011;2271;49.464;11.070;2023-04-02T13:09:53;1.70;;;1.60;;
4517;SDS011;2271;49.464;11.070;2023-04-02T13:14:58;1.60;;;1.50;;
4517;SDS011;2271;49.464;11.070;2023-04-02T13:17:41;1.90;;;1.57;;
4517;SDS011;2271;49.464;11.070;2023-04-02T13:23:00;1.13;;;1.03;;
4517;SDS011;2271;49.464;11.070;2023-04-02T13:25:45;1.30;;;1.20;;
4517;SDS011;2271;49.464;11.070;2023-04-02T13:28:10;1.30;;;1.20;;
4517;SDS011;2271;49.464;11.070;2023-04-02T13:30:36;1.70;;;1.60;;
4517;SDS011;2271;49.464;11.070;2023-04-02T13:33:02;1.07;;;0.97;;
4517;SDS011;2271;49.464;11.070;2023-04-02T13:35:27;1.57;;;1.47;;
4517;SDS011;2271;49.464;11.070;2023-04-02T13:37:53;1.03;;;1.03;;
4517;SDS011;2271;49.464;11.070;2023-04-02T13:40:19;1.50;;;1.30;;
4517;SDS011;2271;49.464;11.070;2023-04-02T13:42:45;1.50;;;1.40;;
4517;SDS011;2271;49.464;11.070;2023-04-02T13:48:08;1.30;;;1.20;;
4517;SDS011;2271;49.464;11.070;2023-04-02T13:50:37;2.27;;;2.07;;
4517;SDS011;2271;49.464;11.070;2023-04-02T13:53:04;3.03;;;2.00;;
4517;SDS011;2271;49.464;11.070;2023-04-02T13:55:33;2.83;;;2.30;;
4517;SDS011;2271;49.464;11.070;2023-04-02T13:58:01;2.50;;;2.00;;
4517;SDS011;2271;49.464;11.070;2023-04-02T14:00:28;2.20;;;1.93;;
4517;SDS011;2271;49.464;11.070;2023-04-02T14:02:56;2.50;;;1.87;;
4517;SDS011;2271;49.464;11.070;2023-04-02T14:05:35;2.90;;;1.77;;
4517;SDS011;2271;49.464;11.070;2023-04-02T14:08:16;2.50;;;2.00;;
4517;SDS011;2271;49.464;11.070;2023-04-02T14:13:58;1.73;;;1.60;;
4517;SDS011;2271;49.464;11.070;2023-04-02T14:16:48;2.60;;;1.80;;
4517;SDS011;2271;49.464;11.070;2023-04-02T14:30:33;2.90;;;1.80;;
4517;SDS011;2271;49.464;11.070;2023-04-02T14:35:53;1.60;;;1.50;;
4517;SDS011;2271;49.464;11.070;2023-04-02T14:38:28;1.83;;;1.73;;
4517;SDS011;2271;49.464;11.070;2023-04-02T14:41:13;2.37;;;1.50;;
4517;SDS011;2271;49.464;11.070;2023-04-02T14:46:15;3.77;;;1.27;;
4517;SDS011;2271;49.464;11.070;2023-04-02T14:49:00;1.67;;;1.53;;
4517;SDS011;2271;49.464;11.070;2023-04-02T14:54:49;1.67;;;1.27;;
4517;SDS011;2271;49.464;11.070;2023-04-02T15:00:04;1.97;;;1.57;;
4517;SDS011;2271;49.464;11.070;2023-04-02T15:07:54;1.60;;;1.50;;
4517;SDS011;2271;49.464;11.070;2023-04-02T15:10:38;1.60;;;1.50;;
4517;SDS011;2271;49.464;11.070;2023-04-02T15:13:17;1.87;;;1.77;;
4517;SDS011;2271;49.464;11.070;2023-04-02T15:15:51;2.33;;;2.13;;
4517;SDS011;2271;49.464;11.070;2023-04-02T15:18:43;2.57;;;1.60;;
4517;SDS011;2271;49.464;11.070;2023-04-02T15:28:54;1.17;;;1.10;;
4517;SDS011;2271;49.464;11.070;2023-04-02T15:31:44;1.40;;;1.30;;
4517;SDS011;2271;49.464;11.070;2023-04-02T15:34:29;0.80;;;0.70;;
4517;SDS011;2271;49.464;11.070;2023-04-02T15:37:15;1.37;;;1.23;;
4517;SDS011;2271;49.464;11.070;2023-04-02T15:40:06;2.80;;;1.40;;
4517;SDS011;2271;49.464;11.070;2023-04-02T15:42:45;2.17;;;1.30;;
4517;SDS011;2271;49.464;11.070;2023-04-02T15:45:23;2.20;;;1.37;;
4517;SDS011;2271;49.464;11.070;2023-04-02T15:50:56;1.33;;;1.23;;
4517;SDS011;2271;49.464;11.070;2023-04-02T16:04:21;3.20;;;1.70;;
4517;SDS011;2271;49.464;11.070;2023-04-02T16:12:48;1.50;;;1.40;;
4517;SDS011;2271;49.464;11.070;2023-04-02T16:15:16;1.40;;;1.30;;
4517;SDS011;2271;49.464;11.070;2023-04-02T16:17:50;3.13;;;1.60;;
4517;SDS011;2271;49.464;11.070;2023-04-02T16:20:21;1.60;;;1.47;;
4517;SDS011;2271;49.464;11.070;2023-04-02T16:23:16;2.87;;;2.03;;
4517;SDS011;2271;49.464;11.070;2023-04-02T16:33:50;2.40;;;1.67;;
4517;SDS011;2271;49.464;11.070;2023-04-02T16:36:27;4.13;;;1.80;;
4517;SDS011;2271;49.464;11.070;2023-04-02T16:39:06;5.03;;;1.80;;
4517;SDS011;2271;49.464;11.070;2023-04-02T16:42:00;1.97;;;1.60;;
4517;SDS011;2271;49.464;11.070;2023-04-02T16:47:09;2.97;;;2.00;;
4517;SDS011;2271;49.464;11.070;2023-04-02T16:49:59;1.97;;;1.70;;
4517;SDS011;2271;49.464;11.070;2023-04-02T16:55:33;2.33;;;1.70;;
4517;SDS011;2271;49.464;11.070;2023-04-02T17:00:59;1.90;;;1.50;;
4517;SDS011;2271;49.464;11.070;2023-04-02T17:08:59;1.70;;;1.60;;
4517;SDS011;2271;49.464;11.070;2023-04-02T17:11:35;3.57;;;1.60;;
4517;SDS011;2271;49.464;11.070;2023-04-02T17:16:49;3.07;;;2.23;;
4517;SDS011;2271;49.464;11.070;2023-04-02T17:19:16;2.30;;;2.07;;
4517;SDS011;2271;49.464;11.070;2023-04-02T17:21:45;2.23;;;2.00;;
4517;SDS011;2271;49.464;11.070;2023-04-02T17:26:41;1.83;;;1.73;;
4517;SDS011;2271;49.464;11.070;2023-04-02T17:29:16;2.27;;;1.83;;
4517;SDS011;2271;49.464;11.070;2023-04-02T17:31:45;2.13;;;1.60;;
4517;SDS011;2271;49.464;11.070;2023-04-02T17:34:13;2.83;;;2.40;;
4517;SDS011;2271;49.464;11.070;2023-04-02T17:41:58;3.20;;;2.23;;
4517;SDS011;2271;49.464;11.070;2023-04-02T17:58:04;3.17;;;1.80;;
4517;SDS011;2271;49.464;11.070;2023-04-02T18:05:53;4.90;;;3.70;;
4517;SDS011;2271;49.464;11.070;2023-04-02T18:08:25;6.93;;;3.97;;
4517;SDS011;2271;49.464;11.070;2023-04-02T18:16:12;3.50;;;2.93;;
4517;SDS011;2271;49.464;11.070;2023-04-02T18:33:03;4.03;;;2.10;;
4517;SDS011;2271;49.464;11.070;2023-04-02T18:41:13;6.13;;;2.60;;
4517;SDS011;2271;49.464;11.070;2023-04-02T18:46:57;4.27;;;2.40;;
4517;SDS011;2271;49.464;11.070;2023-04-02T18:49:45;3.80;;;2.40;;
4517;SDS011;2271;49.464;11.070;2023-04-02T18:52:29;3.80;;;2.67;;
4517;SDS011;2271;49.464;11.070;2023-04-02T18:54:56;3.33;;;2.40;;
4517;SDS011;2271;49.464;11.070;2023-04-02T18:57:31;2.97;;;2.67;;
4517;SDS011;2271;49.464;11.070;2023-04-02T19:05:13;3.97;;;2.63;;
4517;SDS011;2271;49.464;11.070;2023-04-02T19:08:09;3.23;;;2.57;;
4517;SDS011;2271;49.464;11.070;2023-04-02T19:10:44;2.80;;;2.03;;
4517;SDS011;2271;49.464;11.070;2023-04-02T19:13:16;4.10;;;2.07;;
4517;SDS011;2271;49.464;11.070;2023-04-02T19:19:14;3.07;;;2.10;;
4517;SDS011;2271;49.464;11.070;2023-04-02T19:21:36;2.43;;;1.90;;
4517;SDS011;2271;49.464;11.070;2023-04-02T19:29:57;2.60;;;1.73;;
4517;SDS011;2271;49.464;11.070;2023-04-02T19:38:25;4.33;;;2.13;;
4517;SDS011;2271;49.464;11.070;2023-04-02T19:43:54;2.73;;;2.30;;
4517;SDS011;2271;49.464;11.070;2023-04-02T19:46:20;2.50;;;1.67;;
4517;SDS011;2271;49.464;11.070;2023-04-02T19:48:50;4.43;;;1.80;;
4517;SDS011;2271;49.464;11.070;2023-04-02T19:51:36;2.20;;;1.90;;
4517;SDS011;2271;49.464;11.070;2023-04-02T19:54:02;2.40;;;2.00;;
4517;SDS011;2271;49.464;11.070;2023-04-02T19:56:28;2.90;;;2.57;;
4517;SDS011;2271;49.464;11.070;2023-04-02T19:58:54;1.83;;;1.73;;
4517;SDS011;2271;49.464;11.070;2023-04-02T20:01:20;4.73;;;1.90;;
4517;SDS011;2271;49.464;11.070;2023-04-02T20:03:46;2.03;;;1.80;;
4517;SDS011;2271;49.464;11.070;2023-04-02T20:06:11;3.23;;;2.10;;
4517;SDS011;2271;49.464;11.070;2023-04-02T20:08:37;2.80;;;1.80;;
4517;SDS011;2271;49.464;11.070;2023-04-02T20:11:03;2.77;;;1.87;;
4517;SDS011;2271;49.464;11.070;2023-04-02T20:13:30;3.43;;;2.00;;
4517;SDS011;2271;49.464;11.070;2023-04-02T20:15:59;2.40;;;1.97;;
4517;SDS011;2271;49.464;11.070;2023-04-02T20:18:26;2.60;;;2.23;;
4517;SDS011;2271;49.464;11.070;2023-04-02T20:20:52;3.07;;;2.40;;
4517;SDS011;2271;49.464;11.070;2023-04-02T20:23:17;4.60;;;2.80;;
4517;SDS011;2271;49.464;11.070;2023-04-02T20:25:47;2.10;;;1.90;;
4517;SDS011;2271;49.464;11.070;2023-04-02T20:28:24;2.43;;;2.17;;
4517;SDS011;2271;49.464;11.070;2023-04-02T20:30:54;3.13;;;2.10;;
4517;SDS011;2271;49.464;11.070;2023-04-02T20:33:37;3.93;;;1.90;;
4517;SDS011;2271;49.464;11.070;2023-04-02T20:36:04;1.90;;;1.80;;
4517;SDS011;2271;49.464;11.070;2023-04-02T20:38:46;6.77;;;2.20;;
4517;SDS011;2271;49.464;11.070;2023-04-02T20:41:13;2.87;;;1.60;;
4517;SDS011;2271;49.464;11.070;2023-04-02T20:43:42;1.83;;;1.70;;
4517;SDS011;2271;49.464;11.070;2023-04-02T20:46:08;5.13;;;1.70;;
4517;SDS011;2271;49.464;11.070;2023-04-02T20:48:36;3.07;;;1.43;;
4517;SDS011;2271;49.464;11.070;2023-04-02T20:51:03;2.90;;;1.70;;
4517;SDS011;2271;49.464;11.070;2023-04-02T20:53:32;1.63;;;1.50;;
4517;SDS011;2271;49.464;11.070;2023-04-02T20:56:05;3.93;;;2.50;;
4517;SDS011;2271;49.464;11.070;2023-04-02T20:58:32;3.03;;;1.60;;
4517;SDS011;2271;49.464;11.070;2023-04-02T21:03:40;2.50;;;1.70;;
4517;SDS011;2271;49.464;11.070;2023-04-02T21:06:11;2.07;;;1.40;;
4517;SDS011;2271;49.464;11.070;2023-04-02T21:08:42;2.33;;;1.67;;
4517;SDS011;2271;49.464;11.070;2023-04-02T21:11:08;2.00;;;1.00;;